SBMQ/MCP METAR and TAF weather

Enter ICAO airport designator
Station Type Date Time Source
SBMQ METAR 2019/08/24 17:00 UTC NOAA

SBMQ 241700Z 10007KT 9999 FEW025 33/22 Q1013


Station Type Date Time Source
SBMQ Decoded METAR 2019/08/24 17:00 UTC NOAA

Station name not available
Aug 24, 2019 - 01:00 PM EDT / 2019.08.24 1700 UTC
Wind: from the E (100 degrees) at 8 MPH (7 KT):0
Visibility: greater than 7 mile(s):0
Sky conditions: mostly clear
Temperature: 91 F (33 C)
Heat index: 97.5 F (36.4 C):1
Dew Point: 71 F (22 C)
Relative Humidity: 52%
Pressure (altimeter): 29.91 in. Hg (1013 hPa)
ob: SBMQ 241700Z 10007KT 9999 FEW025 33/22 Q1013
cycle: 17

Station Type Date Time Source
SBMQ TAF 2019/08/24 18:13 UTC NOAA

TAF SBMQ 241500Z 2418/2518 05007KT 9999 SCT025 FEW035TCU TX34/2419Z TN24/2509Z
BECMG 2421/2423 06010KT CAVOK
BECMG 2500/2502 09010KT SCT015
BECMG 2505/2507 04005KT SCT013
BECMG 2510/2512 04005KT SCT020
BECMG 2515/2517 09005KT
RMK PGY

Example: see airport list